Time;durP1;ratioP1;P1;durP2;ratioP2;P2;SDS_P1;SDS_P2;PMS_P1;PMS_P2;Temp;Humidity;BMP_temperature;BMP_pressure;BME280_temperature;BME280_humidity;BME280_pressure;Samples;Min_cycle;Max_cycle;Signal;HPM_P1;HPM_P2
2022/04/23 00:01:42;;;;;;;9.97;7.60;;;15.60;23.40;;;;;;5068192;28;20591;-76
2022/04/23 00:04:13;;;;;;;9.63;8.43;;;15.60;23.40;;;;;;5073296;28;20465;-76
2022/04/23 00:06:43;;;;;;;9.40;7.27;;;15.60;23.20;;;;;;5065537;28;20549;-77
2022/04/23 00:09:11;;;;;;;10.07;7.87;;;15.60;23.30;;;;;;5067243;28;20480;-77
2022/04/23 00:11:39;;;;;;;10.73;7.37;;;15.50;24.10;;;;;;5065887;28;20466;-79
2022/04/23 00:14:08;;;;;;;8.37;7.50;;;15.50;24.70;;;;;;5072763;28;20455;-76
2022/04/23 00:16:36;;;;;;;11.33;9.00;;;15.50;25.80;;;;;;5074508;28;20549;-75
2022/04/23 00:19:05;;;;;;;8.90;7.50;;;15.50;25.20;;;;;;5068926;28;20450;-79
2022/04/23 00:21:34;;;;;;;10.60;7.60;;;15.50;25.70;;;;;;5068943;28;20442;-77
2022/04/23 00:24:03;;;;;;;7.80;6.90;;;15.50;26.70;;;;;;5072531;28;20446;-78
2022/04/23 00:26:32;;;;;;;8.90;7.77;;;15.50;27.30;;;;;;5072388;28;20453;-76
2022/04/23 00:29:00;;;;;;;7.40;6.73;;;15.50;26.90;;;;;;5072916;28;20489;-76
2022/04/23 00:31:28;;;;;;;7.23;6.53;;;15.50;26.90;;;;;;5076577;28;20441;-77
2022/04/23 00:33:56;;;;;;;7.93;7.13;;;15.50;26.20;;;;;;5079465;28;20536;-78
2022/04/23 00:36:25;;;;;;;7.83;7.03;;;15.40;27.30;;;;;;5075356;28;20454;-79
2022/04/23 00:38:56;;;;;;;10.13;8.30;;;15.40;27.80;;;;;;5074819;28;20486;-79
2022/04/23 00:44:09;;;;;;;7.97;7.17;;;15.40;27.60;;;;;;5072983;28;20465;-78
2022/04/23 00:46:38;;;;;;;8.10;6.90;;;15.40;28.00;;;;;;5071588;28;20467;-78
2022/04/23 00:49:06;;;;;;;10.13;8.07;;;15.40;29.00;;;;;;5074601;28;20489;-79
2022/04/23 00:51:35;;;;;;;7.27;6.57;;;15.40;29.20;;;;;;5073387;28;20453;-80
2022/04/23 00:54:07;;;;;;;7.77;6.97;;;15.50;29.30;;;;;;5075358;28;20447;-80
2022/04/23 00:56:36;;;;;;;8.57;7.30;;;15.40;29.40;;;;;;5070071;28;20451;-77
2022/04/23 00:59:06;;;;;;;8.03;7.23;;;15.40;28.90;;;;;;5074039;28;20454;-79
2022/04/23 01:01:34;;;;;;;9.37;7.20;;;15.30;31.60;;;;;;5074613;28;20464;-79
2022/04/23 01:04:05;;;;;;;7.90;6.60;;;15.30;31.00;;;;;;5076892;28;20490;-76
2022/04/23 01:06:35;;;;;;;9.33;7.67;;;15.30;30.40;;;;;;5078851;28;20478;-82
2022/04/23 01:09:06;;;;;;;8.63;7.73;;;15.20;30.60;;;;;;5073093;28;22206;-78
2022/04/23 01:11:36;;;;;;;9.40;7.50;;;15.20;31.30;;;;;;5065796;28;20451;-78
2022/04/23 01:14:04;;;;;;;9.00;7.10;;;15.10;32.20;;;;;;5064744;28;20461;-79
2022/04/23 01:16:33;;;;;;;9.73;6.97;;;15.20;33.10;;;;;;5067918;28;20462;-80
2022/04/23 01:19:01;;;;;;;8.10;7.30;;;15.10;35.40;;;;;;5077209;28;20477;-79
2022/04/23 01:21:31;;;;;;;10.33;6.93;;;15.10;36.00;;;;;;5076154;28;20455;-79
2022/04/23 01:23:59;;;;;;;7.60;6.83;;;15.10;36.30;;;;;;5071173;28;20452;-77
2022/04/23 01:26:29;;;;;;;8.43;7.40;;;15.10;37.30;;;;;;5074673;28;20549;-77
2022/04/23 01:28:59;;;;;;;10.50;7.17;;;15.00;37.30;;;;;;5070885;28;20492;-79
2022/04/23 01:31:27;;;;;;;8.93;7.50;;;15.00;36.80;;;;;;5075644;28;20462;-80
2022/04/23 01:33:56;;;;;;;8.17;7.20;;;15.00;35.90;;;;;;5073873;28;20551;-79
2022/04/23 01:36:24;;;;;;;12.73;8.27;;;15.00;38.80;;;;;;5068820;28;20552;-77
2022/04/23 01:38:54;;;;;;;8.37;7.20;;;15.00;40.10;;;;;;5070778;28;20474;-81
2022/04/23 01:41:22;;;;;;;7.60;6.80;;;14.90;40.60;;;;;;5074192;28;20450;-78
2022/04/23 01:43:51;;;;;;;7.60;6.87;;;15.00;41.20;;;;;;5073762;28;20486;-77
2022/04/23 01:46:19;;;;;;;8.83;6.80;;;14.90;41.90;;;;;;5069877;28;20469;-78
2022/04/23 01:48:49;;;;;;;8.90;6.47;;;14.80;42.30;;;;;;5072827;28;20489;-80
2022/04/23 01:51:17;;;;;;;7.03;6.33;;;14.70;44.30;;;;;;5071936;28;20537;-77
2022/04/23 01:53:46;;;;;;;10.30;6.90;;;14.60;46.80;;;;;;5066972;28;20439;-79
2022/04/23 01:56:15;;;;;;;11.17;7.10;;;14.60;50.70;;;;;;5070847;28;20454;-80
2022/04/23 01:58:44;;;;;;;6.67;6.03;;;14.60;51.30;;;;;;5074206;28;20493;-78
2022/04/23 02:01:12;;;;;;;7.13;6.43;;;14.70;52.20;;;;;;5075440;28;20455;-78
2022/04/23 02:03:40;;;;;;;9.90;7.20;;;14.60;52.40;;;;;;5077698;28;20461;-80
2022/04/23 02:06:08;;;;;;;9.83;7.13;;;14.70;53.70;;;;;;5073404;28;20459;-80
2022/04/23 02:08:37;;;;;;;10.07;6.10;;;14.50;55.70;;;;;;5071409;28;20487;-79
2022/04/23 02:11:06;;;;;;;9.83;7.10;;;14.60;57.40;;;;;;5069564;28;20824;-78
2022/04/23 02:13:36;;;;;;;7.50;6.70;;;14.50;56.70;;;;;;5072220;28;20469;-77
2022/04/23 02:16:05;;;;;;;8.00;7.20;;;14.50;57.20;;;;;;5068195;28;20462;-78
2022/04/23 02:18:33;;;;;;;7.07;6.37;;;14.60;58.10;;;;;;5076630;28;20469;-79
2022/04/23 02:21:01;;;;;;;7.17;6.10;;;14.50;59.40;;;;;;5072107;28;20466;-80
2022/04/23 02:23:31;;;;;;;8.00;6.90;;;14.50;59.10;;;;;;5074387;28;20486;-78
2022/04/23 02:25:59;;;;;;;9.10;7.23;;;14.50;60.40;;;;;;5067165;28;20454;-77
2022/04/23 02:28:27;;;;;;;8.87;6.83;;;14.40;61.90;;;;;;5063769;28;21199;-78
2022/04/23 02:30:57;;;;;;;7.87;6.30;;;14.40;63.60;;;;;;5067642;28;20464;-77
2022/04/23 02:33:26;;;;;;;11.10;7.53;;;14.40;64.70;;;;;;5076951;28;21046;-78
2022/04/23 02:35:55;;;;;;;10.00;7.87;;;14.50;65.70;;;;;;5068401;28;20462;-76
2022/04/23 02:38:23;;;;;;;10.40;8.13;;;14.40;66.70;;;;;;5067293;28;20479;-82
2022/04/23 02:40:51;;;;;;;8.70;7.43;;;14.20;70.30;;;;;;5066971;28;20464;-78
2022/04/23 02:43:21;;;;;;;7.43;6.57;;;14.10;77.80;;;;;;5068759;28;20545;-79
2022/04/23 02:45:49;;;;;;;10.57;7.13;;;14.20;80.50;;;;;;5071947;28;20456;-77
2022/04/23 02:48:19;;;;;;;9.47;8.47;;;14.20;81.20;;;;;;5069684;28;20475;-78
2022/04/23 02:50:47;;;;;;;7.67;6.87;;;14.20;81.30;;;;;;5070875;28;20478;-81
2022/04/23 02:53:16;;;;;;;7.60;6.80;;;14.20;84.00;;;;;;5072152;28;20456;-78
2022/04/23 02:55:46;;;;;;;9.40;8.50;;;14.20;83.20;;;;;;5073648;28;20465;-80
2022/04/23 02:58:14;;;;;;;8.17;7.37;;;13.80;89.10;;;;;;5067679;28;20479;-79
2022/04/23 03:00:43;;;;;;;8.63;6.80;;;14.00;92.80;;;;;;5073411;28;20461;-77
2022/04/23 03:03:12;;;;;;;10.70;7.83;;;14.00;93.00;;;;;;5071647;28;20444;-78
2022/04/23 03:05:42;;;;;;;8.80;7.43;;;14.00;93.30;;;;;;5078268;28;20442;-79
2022/04/23 03:08:12;;;;;;;8.80;7.67;;;14.00;94.40;;;;;;5072601;28;20489;-80
2022/04/23 03:10:40;;;;;;;10.80;7.80;;;14.00;92.90;;;;;;5074821;28;20474;-78
2022/04/23 03:13:09;;;;;;;10.07;7.43;;;14.00;93.80;;;;;;5068586;28;20941;-78
2022/04/23 03:15:38;;;;;;;9.07;6.80;;;14.00;91.60;;;;;;5073484;28;20522;-77
2022/04/23 03:18:08;;;;;;;9.07;8.13;;;14.00;91.80;;;;;;5073692;28;20589;-79
2022/04/23 03:20:37;;;;;;;7.93;7.13;;;13.90;91.20;;;;;;5074751;28;20476;-79
2022/04/23 03:23:07;;;;;;;8.40;6.80;;;13.90;93.00;;;;;;5073374;28;20486;-80
2022/04/23 03:25:36;;;;;;;9.10;7.60;;;13.80;95.60;;;;;;5071761;28;20483;-77
2022/04/23 03:28:05;;;;;;;9.47;8.00;;;13.90;93.40;;;;;;5072636;28;20494;-79
2022/04/23 03:30:34;;;;;;;8.23;6.63;;;13.80;94.20;;;;;;5072125;28;20472;-78
2022/04/23 03:33:02;;;;;;;8.60;7.50;;;13.80;93.50;;;;;;5071567;28;20539;-79
2022/04/23 03:35:30;;;;;;;9.43;8.00;;;13.70;94.30;;;;;;5072442;28;20469;-78
2022/04/23 03:38:01;;;;;;;9.20;7.90;;;13.70;95.90;;;;;;5068132;28;20481;-77
2022/04/23 03:40:31;;;;;;;8.60;7.70;;;13.60;97.80;;;;;;5074119;28;20449;-78
2022/04/23 03:42:59;;;;;;;8.53;7.67;;;13.60;99.30;;;;;;5072399;28;20464;-80
2022/04/23 03:45:27;;;;;;;10.43;7.40;;;13.50;99.90;;;;;;5071469;28;20455;-78
2022/04/23 03:47:55;;;;;;;8.30;7.00;;;13.50;99.40;;;;;;5101688;28;20481;-81
2022/04/23 03:50:23;;;;;;;10.47;7.70;;;13.50;99.90;;;;;;5070952;28;20523;-79
2022/04/23 03:52:52;;;;;;;10.57;7.87;;;13.50;99.90;;;;;;5069861;28;20488;-77
2022/04/23 03:55:20;;;;;;;11.57;9.07;;;13.50;99.90;;;;;;5071319;28;21139;-77
2022/04/23 03:57:52;;;;;;;9.50;8.23;;;13.50;99.90;;;;;;5073124;28;20497;-77
2022/04/23 04:00:21;;;;;;;9.13;7.47;;;13.50;99.90;;;;;;5076126;28;20471;-81
2022/04/23 04:02:50;;;;;;;11.63;8.47;;;13.50;99.90;;;;;;5065545;28;20515;-78
2022/04/23 04:05:18;;;;;;;13.10;8.90;;;13.50;99.90;;;;;;5075293;28;20457;-78
2022/04/23 04:07:48;;;;;;;10.97;8.33;;;13.50;99.90;;;;;;5081334;28;21046;-81
2022/04/23 04:10:18;;;;;;;9.57;8.63;;;13.40;99.90;;;;;;5074361;28;20597;-77
2022/04/23 04:12:46;;;;;;;10.63;9.53;;;13.40;99.90;;;;;;5077258;28;20488;-80
2022/04/23 04:15:17;;;;;;;8.70;7.80;;;13.40;99.90;;;;;;5076159;28;20459;-78
2022/04/23 04:17:49;;;;;;;8.80;7.90;;;13.40;99.90;;;;;;5076689;28;20479;-79
2022/04/23 04:20:17;;;;;;;10.50;8.73;;;13.40;99.90;;;;;;5070002;28;20450;-77
2022/04/23 04:22:46;;;;;;;9.93;8.60;;;13.40;99.90;;;;;;5071399;28;20459;-79
2022/04/23 04:25:17;;;;;;;9.20;7.83;;;13.40;99.90;;;;;;5074170;28;20457;-80
2022/04/23 04:27:45;;;;;;;12.73;8.60;;;13.40;99.90;;;;;;5074695;28;20517;-79
2022/04/23 04:30:14;;;;;;;8.57;7.20;;;13.30;99.90;;;;;;5067080;28;20483;-80
2022/04/23 04:32:48;;;;;;;10.40;8.60;;;13.30;99.90;;;;;;5066068;28;20455;-79
2022/04/23 04:35:16;;;;;;;9.17;7.83;;;13.40;99.90;;;;;;5069994;28;20483;-80
2022/04/23 04:37:45;;;;;;;10.13;7.63;;;13.30;99.90;;;;;;5070648;28;20535;-79
2022/04/23 04:40:13;;;;;;;8.60;7.47;;;13.40;99.90;;;;;;5076505;28;20456;-78
2022/04/23 04:42:41;;;;;;;9.10;7.63;;;13.40;99.90;;;;;;5088054;28;20464;-77
2022/04/23 04:45:10;;;;;;;9.60;8.13;;;13.40;99.90;;;;;;5076537;28;20959;-79
2022/04/23 04:47:38;;;;;;;8.70;6.53;;;13.40;99.90;;;;;;5078638;28;20525;-79
2022/04/23 04:50:09;;;;;;;9.77;8.77;;;13.40;99.90;;;;;;5085576;28;20531;-77
2022/04/23 04:52:37;;;;;;;8.63;7.50;;;13.50;99.90;;;;;;5075919;28;20451;-78
2022/04/23 04:55:06;;;;;;;9.33;7.70;;;13.40;99.90;;;;;;5077519;28;20440;-80
2022/04/23 04:57:34;;;;;;;13.37;10.23;;;13.40;99.90;;;;;;5078306;28;20486;-80
2022/04/23 05:00:04;;;;;;;11.57;8.53;;;13.40;99.90;;;;;;5080672;28;20927;-78
2022/04/23 05:02:32;;;;;;;11.13;8.50;;;13.40;99.90;;;;;;5080917;28;20453;-78
2022/04/23 05:05:00;;;;;;;9.90;7.50;;;13.70;99.90;;;;;;5079635;28;20459;-78
2022/04/23 05:07:30;;;;;;;9.80;8.43;;;13.50;99.90;;;;;;5086089;28;21563;-78
2022/04/23 05:09:58;;;;;;;10.10;8.57;;;13.50;99.90;;;;;;5079309;28;20447;-77
2022/04/23 05:12:26;;;;;;;9.37;7.80;;;13.50;99.90;;;;;;5081386;28;20915;-78
2022/04/23 05:14:54;;;;;;;9.30;7.97;;;13.60;99.90;;;;;;5075551;28;20848;-77
2022/04/23 05:17:23;;;;;;;9.10;7.97;;;13.60;99.90;;;;;;5075098;28;20479;-79
2022/04/23 05:19:51;;;;;;;8.97;7.47;;;13.60;99.90;;;;;;5079649;28;20516;-78
2022/04/23 05:22:19;;;;;;;9.53;7.67;;;13.60;99.90;;;;;;5082938;28;20459;-78
2022/04/23 05:24:49;;;;;;;11.90;8.67;;;13.60;99.90;;;;;;5079634;28;20448;-79
2022/04/23 05:27:17;;;;;;;9.40;7.90;;;13.60;99.90;;;;;;5078750;28;20489;-77
2022/04/23 05:29:45;;;;;;;8.13;7.20;;;13.60;99.90;;;;;;5079785;28;20445;-77
2022/04/23 05:32:13;;;;;;;8.73;7.70;;;13.70;99.90;;;;;;5070783;28;20478;-79
2022/04/23 05:34:43;;;;;;;9.03;6.73;;;13.80;99.90;;;;;;5077686;28;20463;-77
2022/04/23 05:37:11;;;;;;;7.53;6.70;;;13.80;99.90;;;;;;5078296;28;20481;-80
2022/04/23 05:39:39;;;;;;;11.30;8.20;;;13.70;99.90;;;;;;5078040;28;20445;-78
2022/04/23 05:42:09;;;;;;;8.10;6.37;;;13.70;99.90;;;;;;5074222;28;20963;-77
2022/04/23 05:44:37;;;;;;;8.00;7.20;;;13.80;99.90;;;;;;5067004;28;21015;-77
2022/04/23 05:47:06;;;;;;;7.50;6.63;;;13.70;99.90;;;;;;5076448;28;20874;-77
2022/04/23 05:49:34;;;;;;;9.10;8.20;;;13.80;99.90;;;;;;5061384;28;20438;-79
2022/04/23 05:52:19;;;;;;;8.00;7.20;;;13.80;99.90;;;;;;5067602;28;20270;-77
2022/04/23 05:54:47;;;;;;;9.70;7.60;;;14.10;99.90;;;;;;5067143;28;20465;-81
2022/04/23 05:57:17;;;;;;;7.87;6.20;;;13.90;99.90;;;;;;5066985;28;20476;-79
2022/04/23 05:59:45;;;;;;;7.70;6.13;;;13.90;99.90;;;;;;5055902;28;20484;-76
2022/04/23 06:02:14;;;;;;;7.90;6.80;;;13.80;99.90;;;;;;5060029;28;21020;-78
2022/04/23 06:04:45;;;;;;;9.10;7.40;;;13.80;99.90;;;;;;5061649;28;20536;-79
2022/04/23 06:07:13;;;;;;;7.73;6.77;;;13.70;99.90;;;;;;5061623;28;20554;-79
2022/04/23 06:09:42;;;;;;;9.35;7.07;;;13.60;99.90;;;;;;5064283;28;20446;-79
2022/04/23 06:12:10;;;;;;;8.13;6.23;;;13.50;99.90;;;;;;5069643;28;20214;-78
2022/04/23 06:14:40;;;;;;;9.47;6.73;;;13.60;99.90;;;;;;5066671;28;20466;-77
2022/04/23 06:17:10;;;;;;;8.00;6.37;;;13.70;99.90;;;;;;5061325;28;20476;-79
2022/04/23 06:19:39;;;;;;;9.57;7.20;;;13.70;99.90;;;;;;5065400;28;20454;-77
2022/04/23 06:22:07;;;;;;;7.97;7.13;;;13.70;99.90;;;;;;5067220;28;20452;-77
2022/04/23 06:24:36;;;;;;;7.80;6.17;;;13.80;99.90;;;;;;5067962;28;20456;-75
2022/04/23 06:27:05;;;;;;;8.20;6.53;;;13.80;99.90;;;;;;5063312;28;21034;-77
2022/04/23 06:29:40;;;;;;;8.33;6.83;;;13.80;99.90;;;;;;5064425;28;20545;-75
2022/04/23 06:32:09;;;;;;;7.20;6.50;;;13.80;99.90;;;;;;5063591;28;20469;-75
2022/04/23 06:34:38;;;;;;;9.40;7.17;;;13.80;99.90;;;;;;5065135;28;20544;-77
2022/04/23 06:37:08;;;;;;;9.17;6.67;;;13.80;99.90;;;;;;5068739;28;20838;-76
2022/04/23 06:39:36;;;;;;;7.33;5.90;;;13.80;99.90;;;;;;5064634;28;20457;-76
2022/04/23 06:42:05;;;;;;;10.63;8.00;;;13.90;99.90;;;;;;5066210;28;20462;-75
2022/04/23 06:44:33;;;;;;;7.57;6.90;;;13.90;99.90;;;;;;5068014;28;20467;-77
2022/04/23 06:47:04;;;;;;;8.70;7.20;;;13.90;99.90;;;;;;5064760;28;20456;-76
2022/04/23 06:49:32;;;;;;;8.77;6.40;;;13.90;99.90;;;;;;5062580;28;20465;-76
2022/04/23 06:52:00;;;;;;;6.73;5.50;;;13.90;99.90;;;;;;5061644;28;20511;-78
2022/04/23 06:54:29;;;;;;;7.63;6.33;;;14.00;99.90;;;;;;5059555;28;20547;-78
2022/04/23 06:56:57;;;;;;;9.90;6.57;;;13.90;99.90;;;;;;5066345;28;20456;-79
2022/04/23 06:59:26;;;;;;;7.00;6.00;;;13.80;99.90;;;;;;5065948;28;20448;-76
2022/04/23 07:01:54;;;;;;;6.80;6.10;;;13.80;99.90;;;;;;5066175;28;20453;-78
2022/04/23 07:04:25;;;;;;;9.73;6.37;;;13.80;99.90;;;;;;5072137;28;20485;-76
2022/04/23 07:06:53;;;;;;;6.50;5.73;;;13.90;99.90;;;;;;5066554;28;20461;-78
2022/04/23 07:09:21;;;;;;;7.30;6.43;;;14.00;99.90;;;;;;5067547;28;20466;-75
2022/04/23 07:11:50;;;;;;;7.53;6.47;;;14.10;99.90;;;;;;5063729;28;20449;-77
2022/04/23 07:14:18;;;;;;;5.93;5.33;;;14.10;99.90;;;;;;5062569;28;20202;-80
2022/04/23 07:16:47;;;;;;;5.60;5.03;;;14.00;99.90;;;;;;5062967;28;20455;-74
2022/04/23 07:19:16;;;;;;;6.60;4.60;;;14.00;99.90;;;;;;5062323;28;20811;-74
2022/04/23 07:21:45;;;;;;;8.33;5.80;;;14.00;99.90;;;;;;5069532;28;20485;-77
2022/04/23 07:24:20;;;;;;;5.83;5.27;;;14.10;99.90;;;;;;5071300;28;20460;-77
2022/04/23 07:26:48;;;;;;;7.23;6.20;;;14.10;99.90;;;;;;5066849;28;20550;-79
2022/04/23 07:29:16;;;;;;;7.40;5.97;;;14.00;99.90;;;;;;5069770;28;21231;-78
2022/04/23 07:31:44;;;;;;;8.03;6.10;;;14.10;99.90;;;;;;5074851;28;20474;-79
2022/04/23 07:39:46;;;;;;;5.50;5.00;;;14.00;99.90;;;;;;5064891;28;20480;-78
2022/04/23 07:42:15;;;;;;;6.82;5.50;;;14.00;99.90;;;;;;5064203;28;20458;-74
2022/04/23 07:44:43;;;;;;;6.00;5.25;;;14.10;99.90;;;;;;5067457;28;20469;-76
2022/04/23 07:47:18;;;;;;;5.77;5.17;;;14.10;99.90;;;;;;5058564;28;20218;-77
2022/04/23 07:49:47;;;;;;;5.30;4.73;;;13.90;99.90;;;;;;5063826;28;20502;-77
2022/04/23 07:52:16;;;;;;;6.03;4.50;;;14.00;99.90;;;;;;5054540;28;20509;-77
2022/04/23 07:54:44;;;;;;;5.50;4.63;;;13.90;99.90;;;;;;5061297;28;21238;-81
2022/04/23 07:57:13;;;;;;;6.93;5.97;;;14.00;99.90;;;;;;5062235;28;20442;-80
2022/04/23 07:59:43;;;;;;;6.70;5.27;;;13.80;99.90;;;;;;5063695;28;20198;-79
2022/04/23 08:02:11;;;;;;;6.37;5.50;;;13.60;99.90;;;;;;5063749;28;20454;-81
2022/04/23 08:04:40;;;;;;;5.90;5.00;;;13.50;99.90;;;;;;5062273;28;20575;-80
2022/04/23 08:07:08;;;;;;;6.57;4.63;;;13.70;99.90;;;;;;5069769;28;20492;-80
2022/04/23 08:09:39;;;;;;;5.70;4.27;;;13.80;99.90;;;;;;5070434;28;20453;-80
2022/04/23 08:12:10;;;;;;;5.00;4.50;;;13.90;99.90;;;;;;5057862;28;20463;-81
2022/04/23 08:14:39;;;;;;;4.93;4.43;;;14.10;99.90;;;;;;5068508;28;20447;-78
2022/04/23 08:17:07;;;;;;;5.20;4.53;;;14.10;99.90;;;;;;5067764;28;21311;-79
2022/04/23 08:19:35;;;;;;;4.97;4.50;;;14.30;99.90;;;;;;5081995;28;20463;-79
2022/04/23 08:22:05;;;;;;;6.13;5.53;;;14.40;99.90;;;;;;5072342;28;20547;-81
2022/04/23 08:24:33;;;;;;;5.57;5.03;;;14.50;99.90;;;;;;5072115;28;20445;-80
2022/04/23 08:27:03;;;;;;;5.27;4.77;;;13.80;99.90;;;;;;5069627;28;20468;-80
2022/04/23 08:32:17;;;;;;;5.00;4.60;;;13.70;99.90;;;;;;5072370;28;20453;-80
2022/04/23 08:34:45;;;;;;;5.00;4.20;;;13.90;99.90;;;;;;5070245;28;20445;-80
2022/04/23 08:37:13;;;;;;;5.90;5.10;;;14.00;99.90;;;;;;5071446;28;20475;-79
2022/04/23 08:39:42;;;;;;;4.73;4.27;;;13.90;99.90;;;;;;5071754;28;20905;-80
2022/04/23 08:42:12;;;;;;;6.60;5.13;;;14.30;99.90;;;;;;5073004;28;20480;-81
2022/04/23 08:44:40;;;;;;;5.50;4.80;;;14.40;99.90;;;;;;5074706;28;20831;-80
2022/04/23 08:47:11;;;;;;;6.17;5.53;;;14.40;99.90;;;;;;5074837;28;20476;-80
2022/04/23 08:49:42;;;;;;;5.63;4.73;;;14.40;99.90;;;;;;5075716;28;20461;-80
2022/04/23 08:52:17;;;;;;;5.27;4.77;;;14.30;99.90;;;;;;5075710;28;20457;-80
2022/04/23 08:54:45;;;;;;;6.23;4.87;;;14.40;99.90;;;;;;5075442;28;20497;-81
2022/04/23 08:57:15;;;;;;;8.00;4.80;;;14.40;99.90;;;;;;5061303;28;20542;-81
2022/04/23 08:59:45;;;;;;;5.90;5.10;;;14.50;99.90;;;;;;5076676;28;20456;-81
2022/04/23 09:02:14;;;;;;;5.63;5.07;;;14.50;99.90;;;;;;5061734;28;20430;-81
2022/04/23 09:04:43;;;;;;;5.70;4.30;;;14.60;99.90;;;;;;5087204;28;20453;-81
2022/04/23 09:07:22;;;;;;;6.23;4.90;;;14.60;99.90;;;;;;5074077;28;20473;-81
2022/04/23 09:09:51;;;;;;;8.67;5.40;;;14.60;99.90;;;;;;5084255;28;20448;-81
2022/04/23 09:12:24;;;;;;;8.57;6.60;;;14.50;99.90;;;;;;5067764;28;20485;-82
2022/04/23 09:14:52;;;;;;;7.40;5.40;;;14.50;99.90;;;;;;5059249;28;21318;-82
2022/04/23 09:25:50;;;;;;;6.73;4.80;;;14.80;99.90;;;;;;5082933;28;20548;-80
2022/04/23 09:28:20;;;;;;;7.27;5.43;;;14.90;99.90;;;;;;5074335;28;20482;-81
2022/04/23 09:30:50;;;;;;;6.77;4.80;;;15.00;99.90;;;;;;5073184;28;20999;-81
2022/04/23 09:33:19;;;;;;;6.60;5.50;;;14.90;99.90;;;;;;5074507;28;20992;-83
2022/04/23 09:35:57;;;;;;;5.53;4.90;;;14.50;99.90;;;;;;5072152;28;20579;-81
2022/04/23 09:38:26;;;;;;;7.10;5.60;;;14.60;99.90;;;;;;5064628;28;20482;-80
2022/04/23 09:40:55;;;;;;;8.10;5.80;;;14.60;99.90;;;;;;5063107;28;20496;-82
2022/04/23 09:43:29;;;;;;;6.13;5.27;;;14.60;99.90;;;;;;5074181;28;20455;-81
2022/04/23 09:46:05;;;;;;;7.50;4.90;;;14.70;99.90;;;;;;5073280;28;20812;-80
2022/04/23 09:48:39;;;;;;;6.17;5.10;;;14.80;99.90;;;;;;5077188;28;20476;-81
2022/04/23 09:51:20;;;;;;;6.37;5.17;;;15.00;99.90;;;;;;5073623;28;20545;-81
2022/04/23 09:53:50;;;;;;;5.20;4.50;;;15.00;99.90;;;;;;5072363;28;20470;-82
2022/04/23 09:56:21;;;;;;;6.30;5.30;;;15.10;99.90;;;;;;5072619;28;20457;-81
2022/04/23 09:58:50;;;;;;;5.97;5.37;;;15.00;99.90;;;;;;5071765;28;20467;-81
2022/04/23 10:01:20;;;;;;;7.13;5.57;;;15.00;99.90;;;;;;5079520;28;20468;-80
2022/04/23 10:03:51;;;;;;;7.00;5.20;;;14.70;98.50;;;;;;5090663;28;20495;-81
2022/04/23 10:06:21;;;;;;;6.10;4.47;;;14.70;99.90;;;;;;5059457;28;20461;-81
2022/04/23 10:08:51;;;;;;;8.17;5.87;;;14.80;99.90;;;;;;5072889;28;20481;-81
2022/04/23 10:11:25;;;;;;;7.57;4.70;;;14.80;98.90;;;;;;5073497;28;20846;-81
2022/04/23 10:13:59;;;;;;;6.13;4.93;;;14.90;99.90;;;;;;5073561;28;20480;-80
2022/04/23 10:16:30;;;;;;;7.20;6.00;;;15.00;99.90;;;;;;5070855;28;20545;-82
2022/04/23 10:18:59;;;;;;;6.33;4.50;;;15.10;99.90;;;;;;5058868;28;20890;-82
2022/04/23 10:21:39;;;;;;;7.30;5.27;;;15.10;99.90;;;;;;5073024;28;20473;-81
2022/04/23 10:24:13;;;;;;;6.10;4.67;;;15.10;98.90;;;;;;5073182;28;20459;-81
2022/04/23 10:26:48;;;;;;;5.73;4.63;;;14.90;98.90;;;;;;5082240;28;20467;-80
2022/04/23 10:29:21;;;;;;;4.60;3.83;;;14.90;99.90;;;;;;5073420;28;20952;-81
2022/04/23 10:32:22;;;;;;;6.30;4.40;;;15.10;99.90;;;;;;5073449;28;20462;-81
2022/04/23 10:34:50;;;;;;;5.43;4.87;;;15.20;98.60;;;;;;5037214;28;20481;-80
2022/04/23 10:37:20;;;;;;;5.80;4.00;;;15.20;99.90;;;;;;5071973;28;20481;-81
2022/04/23 10:40:16;;;;;;;6.67;5.23;;;15.20;98.90;;;;;;5073086;28;20453;-81
2022/04/23 10:43:12;;;;;;;6.57;4.77;;;15.00;99.90;;;;;;5072945;28;20445;-81
2022/04/23 10:45:42;;;;;;;6.07;4.60;;;15.10;98.40;;;;;;5060686;28;21045;-80
2022/04/23 10:48:30;;;;;;;7.70;5.50;;;15.20;99.90;;;;;;5072367;28;20484;-82
2022/04/23 10:51:06;;;;;;;5.87;4.00;;;15.30;99.60;;;;;;5073416;28;20450;-81
2022/04/23 10:53:50;;;;;;;5.03;4.00;;;15.30;99.30;;;;;;5073042;28;20473;-80
2022/04/23 10:56:20;;;;;;;7.87;5.10;;;15.40;98.70;;;;;;5071423;28;20819;-81
2022/04/23 10:58:50;;;;;;;6.30;5.10;;;15.20;99.30;;;;;;5072164;28;20473;-81
2022/04/23 11:01:22;;;;;;;9.73;5.60;;;15.30;99.50;;;;;;5070587;28;21001;-81
2022/04/23 11:04:20;;;;;;;6.33;4.57;;;15.10;98.70;;;;;;5072380;28;21038;-81
2022/04/23 11:12:33;;;;;;;9.70;5.57;;;15.10;98.70;;;;;;5044187;28;20462;-80
2022/04/23 11:15:02;;;;;;;8.27;5.87;;;15.20;98.90;;;;;;5071493;28;20478;-81
2022/04/23 11:17:54;;;;;;;7.00;5.73;;;15.20;99.30;;;;;;5072926;28;21044;-80
2022/04/23 11:20:39;;;;;;;7.63;6.77;;;15.20;98.40;;;;;;5062934;28;20446;-81
2022/04/23 11:23:08;;;;;;;6.90;6.00;;;15.20;99.10;;;;;;5073358;28;20475;-81
2022/04/23 11:25:36;;;;;;;7.90;6.87;;;15.30;98.70;;;;;;5076943;28;20441;-82
2022/04/23 11:28:22;;;;;;;9.37;4.90;;;15.10;99.00;;;;;;5078617;28;20478;-81
2022/04/23 11:30:52;;;;;;;9.90;7.03;;;15.00;98.60;;;;;;5071795;28;20457;-81
2022/04/23 11:33:21;;;;;;;8.10;6.20;;;15.20;99.70;;;;;;5072560;28;20443;-81
2022/04/23 11:35:50;;;;;;;7.93;5.73;;;15.30;99.90;;;;;;5071408;28;20446;-82
2022/04/23 11:38:23;;;;;;;5.93;5.33;;;15.30;99.90;;;;;;5071844;28;20474;-80
2022/04/23 11:40:52;;;;;;;6.77;5.37;;;15.20;98.80;;;;;;5059904;28;20453;-80
2022/04/23 11:43:34;;;;;;;6.17;5.07;;;15.30;99.90;;;;;;5064853;28;20459;-81
2022/04/23 11:46:04;;;;;;;7.50;5.27;;;15.40;99.20;;;;;;5066167;28;21028;-81
2022/04/23 11:48:48;;;;;;;7.37;5.07;;;15.30;99.60;;;;;;5071503;28;20543;-82
2022/04/23 11:51:18;;;;;;;7.00;5.50;;;15.40;99.90;;;;;;5067151;28;20528;-80
2022/04/23 11:53:49;;;;;;;6.73;5.33;;;15.40;99.90;;;;;;5061691;28;20486;-80
2022/04/23 11:56:32;;;;;;;7.30;5.33;;;15.40;98.80;;;;;;5066067;28;20469;-81
2022/04/23 11:59:04;;;;;;;6.80;5.67;;;15.10;98.50;;;;;;5060958;28;20544;-81
2022/04/23 12:01:32;;;;;;;6.13;4.90;;;15.30;99.50;;;;;;5059100;28;20456;-81
2022/04/23 12:04:02;;;;;;;8.20;4.90;;;15.50;99.90;;;;;;5055958;28;20449;-80
2022/04/23 12:06:43;;;;;;;6.10;5.50;;;15.30;99.10;;;;;;5058192;28;20479;-81
2022/04/23 12:09:11;;;;;;;5.23;4.33;;;15.00;98.30;;;;;;5059714;28;20727;-81
2022/04/23 12:11:40;;;;;;;7.47;4.73;;;15.20;99.00;;;;;;5060371;28;20461;-81
2022/04/23 12:14:09;;;;;;;6.40;5.23;;;15.30;99.60;;;;;;5063234;28;20471;-78
2022/04/23 12:16:39;;;;;;;6.60;5.20;;;15.40;99.90;;;;;;5064298;28;20456;-79
2022/04/23 12:19:11;;;;;;;5.20;4.67;;;15.60;99.90;;;;;;5061406;28;20492;-81
2022/04/23 12:21:40;;;;;;;5.40;5.00;;;15.70;99.90;;;;;;5067923;28;20457;-79
2022/04/23 12:24:09;;;;;;;5.80;4.60;;;15.80;99.90;;;;;;5062176;28;20450;-79
2022/04/23 12:26:39;;;;;;;10.10;5.97;;;15.90;99.90;;;;;;5066315;28;20981;-80
2022/04/23 12:43:21;;;;;;;5.67;4.90;;;16.00;99.20;;;;;;5066848;28;20505;-79
2022/04/23 12:45:50;;;;;;;7.50;6.80;;;15.80;97.20;;;;;;5063994;28;20449;-80
2022/04/23 12:48:19;;;;;;;6.33;5.07;;;15.60;95.10;;;;;;5063231;28;20477;-79
2022/04/23 12:50:50;;;;;;;6.73;5.40;;;15.40;95.70;;;;;;5063862;28;20450;-79
2022/04/23 12:53:44;;;;;;;5.93;5.20;;;15.10;96.40;;;;;;5066560;28;20463;-79
2022/04/23 12:56:12;;;;;;;7.00;4.70;;;15.20;98.40;;;;;;5057766;28;20466;-78
2022/04/23 12:58:41;;;;;;;6.50;5.10;;;15.40;99.70;;;;;;5070119;28;20485;-79
2022/04/23 13:01:10;;;;;;;7.53;5.60;;;15.70;99.90;;;;;;5062748;28;20455;-80
2022/04/23 13:03:44;;;;;;;7.10;5.03;;;15.70;99.70;;;;;;5064901;28;21109;-79
2022/04/23 13:08:59;;;;;;;5.03;4.50;;;16.20;99.90;;;;;;5062240;28;20465;-79
2022/04/23 13:11:28;;;;;;;5.63;5.13;;;16.10;99.90;;;;;;5064383;28;20451;-78
2022/04/23 13:13:57;;;;;;;7.23;6.03;;;16.10;99.90;;;;;;5065609;28;20458;-78
2022/04/23 13:16:27;;;;;;;5.60;4.80;;;16.20;99.90;;;;;;5062250;28;20446;-79
2022/04/23 13:18:56;;;;;;;6.80;6.10;;;16.10;99.90;;;;;;5068795;28;20484;-79
2022/04/23 13:21:27;;;;;;;8.00;5.60;;;16.00;99.90;;;;;;5065426;28;20457;-77
2022/04/23 13:23:56;;;;;;;6.23;5.63;;;15.40;99.90;;;;;;5063997;28;20458;-79
2022/04/23 13:26:27;;;;;;;8.20;5.77;;;15.50;99.90;;;;;;5066677;28;20459;-78
2022/04/23 13:28:56;;;;;;;8.23;5.33;;;15.50;99.90;;;;;;5060047;28;20464;-78
2022/04/23 13:31:24;;;;;;;6.23;5.13;;;15.60;99.90;;;;;;5059290;28;20450;-80
2022/04/23 13:33:52;;;;;;;6.23;5.63;;;15.80;99.90;;;;;;5061577;28;20825;-80
2022/04/23 13:36:21;;;;;;;6.80;5.80;;;15.90;99.90;;;;;;5060853;28;20505;-80
2022/04/23 13:38:50;;;;;;;7.17;6.13;;;15.70;99.90;;;;;;5059724;28;20481;-78
2022/04/23 13:41:19;;;;;;;7.45;5.75;;;15.60;99.90;;;;;;5063939;28;20455;-79
2022/04/23 13:43:49;;;;;;;6.80;6.10;;;15.80;99.90;;;;;;5058562;28;20438;-76